Time;durP1;ratioP1;P1;durP2;ratioP2;P2;SDS_P1;SDS_P2;PMS_P1;PMS_P2;Temp;Humidity;BMP_temperature;BMP_pressure;BME280_temperature;BME280_humidity;BME280_pressure;Samples;Min_cycle;Max_cycle;Signal;HPM_P1;HPM_P2
2022/12/23 00:00:04;;;;;;;14.27;6.80;;;;;;;8.83;100.00;100251.28;5136494;27;20356;-86
2022/12/23 00:02:29;;;;;;;10.95;6.03;;;;;;;8.83;100.00;100253.88;5135999;27;20055;-85
2022/12/23 00:04:54;;;;;;;10.37;5.97;;;;;;;8.84;100.00;100253.00;5137053;27;20050;-86
2022/12/23 00:07:19;;;;;;;9.47;5.70;;;;;;;8.83;100.00;100257.31;5135813;27;20113;-85
2022/12/23 00:09:45;;;;;;;9.20;5.40;;;;;;;8.84;100.00;100256.41;5136850;27;20062;-86
2022/12/23 00:15:06;;;;;;;12.98;6.53;;;;;;;8.84;100.00;100263.34;5136257;27;20034;-86
2022/12/23 00:17:35;;;;;;;9.73;5.47;;;;;;;8.84;100.00;100271.09;5135720;27;20023;-86
2022/12/23 00:20:01;;;;;;;9.40;5.40;;;;;;;8.84;100.00;100274.53;5135501;27;20030;-86
2022/12/23 00:25:12;;;;;;;12.27;7.00;;;;;;;8.85;100.00;100275.41;5115833;28;20129;-85
2022/12/23 00:27:38;;;;;;;15.38;7.57;;;;;;;8.86;100.00;100271.94;5115658;28;20511;-85
2022/12/23 00:30:05;;;;;;;15.68;8.57;;;;;;;8.87;100.00;100273.66;5114774;28;20020;-85
2022/12/23 00:32:30;;;;;;;17.55;9.73;;;;;;;8.85;100.00;100271.06;5115294;28;20055;-86
2022/12/23 00:34:56;;;;;;;15.90;8.55;;;;;;;8.87;100.00;100279.66;5115727;28;20043;-86
2022/12/23 00:37:21;;;;;;;17.23;9.10;;;;;;;8.87;100.00;100289.16;5114644;28;20022;-86
2022/12/23 00:45:14;;;;;;;17.17;9.60;;;;;;;8.87;100.00;100295.19;5094959;28;20075;-85
2022/12/23 00:50:26;;;;;;;16.42;8.77;;;;;;;8.86;100.00;100303.81;5088469;27;20129;-85
2022/12/23 00:52:51;;;;;;;17.83;8.87;;;;;;;8.86;100.00;100301.25;5135275;27;20026;-85
2022/12/23 00:55:17;;;;;;;17.00;8.40;;;;;;;8.86;100.00;100309.00;5135260;27;20016;-85
2022/12/23 00:57:42;;;;;;;18.90;9.77;;;;;;;8.87;100.00;100312.47;5134424;27;20037;-85
2022/12/23 01:00:08;;;;;;;18.80;10.17;;;;;;;8.87;100.00;100321.06;5134716;27;20484;-85
2022/12/23 01:05:35;;;;;;;18.75;10.07;;;;;;;8.87;100.00;100318.47;5134553;27;20037;-85
2022/12/23 01:08:00;;;;;;;20.88;11.15;;;;;;;8.85;100.00;100322.81;5134917;27;20031;-86
2022/12/23 01:10:26;;;;;;;20.00;11.33;;;;;;;8.86;100.00;100318.50;5135200;27;20023;-86
2022/12/23 01:12:51;;;;;;;21.13;11.57;;;;;;;8.87;100.00;100321.06;5135029;27;20023;-85
2022/12/23 01:15:16;;;;;;;19.53;10.47;;;;;;;8.87;100.00;100322.81;5135047;27;20068;-85
2022/12/23 01:17:42;;;;;;;19.93;10.53;;;;;;;8.87;100.00;100322.81;5119609;27;20109;-85
2022/12/23 01:20:07;;;;;;;18.67;9.90;;;;;;;8.87;100.00;100327.97;5114421;27;20026;-86
2022/12/23 01:22:33;;;;;;;18.23;9.80;;;;;;;8.87;100.00;100325.41;5114527;28;20127;-85
2022/12/23 01:24:58;;;;;;;16.40;8.50;;;;;;;8.87;100.00;100327.97;5114192;28;20020;-85
2022/12/23 01:27:23;;;;;;;16.17;8.50;;;;;;;8.87;100.00;100325.41;5113800;28;20019;-86
2022/12/23 01:29:48;;;;;;;15.90;7.90;;;;;;;8.86;100.00;100323.69;5113980;28;20061;-86
2022/12/23 01:32:14;;;;;;;14.83;7.50;;;;;;;8.87;100.00;100327.97;5113384;28;20047;-86
2022/12/23 01:34:39;;;;;;;13.20;6.70;;;;;;;8.86;100.00;100326.28;5114221;28;20380;-86
2022/12/23 01:37:04;;;;;;;15.32;7.90;;;;;;;8.85;100.00;100321.97;5113580;28;20085;-85
2022/12/23 01:39:30;;;;;;;14.27;7.43;;;;;;;8.84;100.00;100328.88;5113748;28;20154;-86
2022/12/23 01:44:59;;;;;;;13.90;6.95;;;;;;;8.87;100.00;100330.56;5114092;28;20086;-85
2022/12/23 01:47:27;;;;;;;14.65;7.10;;;;;;;8.87;100.00;100330.56;5113375;28;20024;-86
2022/12/23 01:50:14;;;;;;;16.58;8.52;;;;;;;8.85;100.00;100337.50;5116920;27;20035;-86
2022/12/23 01:52:46;;;;;;;15.00;7.63;;;;;;;8.85;100.00;100337.50;5134326;27;20110;-86
2022/12/23 01:55:15;;;;;;;16.38;7.82;;;;;;;8.85;100.00;100345.25;5133491;27;20023;-86
2022/12/23 01:57:42;;;;;;;15.90;7.68;;;;;;;8.85;100.00;100347.84;5134628;27;20016;-85
2022/12/23 02:05:37;;;;;;;20.42;10.30;;;;;;;8.86;100.00;100355.59;5135094;27;20037;-86
2022/12/23 02:11:08;;;;;;;18.98;9.70;;;;;;;8.85;100.00;100364.22;5134390;27;20170;-85
2022/12/23 02:17:14;;;;;;;17.67;9.18;;;;;;;8.85;100.00;100378.91;5072193;28;20026;-85
2022/12/23 02:20:17;;;;;;;18.35;9.32;;;;;;;8.85;100.00;100378.91;5114659;28;20084;-85
2022/12/23 02:23:05;;;;;;;17.45;8.63;;;;;;;8.85;100.00;100369.41;5133555;27;20360;-85
2022/12/23 02:25:46;;;;;;;17.42;8.40;;;;;;;8.84;100.00;100366.84;5134179;27;20027;-85
2022/12/23 02:28:45;;;;;;;16.38;8.27;;;;;;;8.83;100.00;100365.13;5133316;28;20030;-85
2022/12/23 02:31:27;;;;;;;19.65;10.18;;;;;;;8.82;100.00;100382.41;5133337;28;20466;-85
2022/12/23 02:33:59;;;;;;;19.70;9.95;;;;;;;8.84;100.00;100387.53;5134438;28;20031;-85
2022/12/23 02:36:42;;;;;;;18.20;9.20;;;;;;;8.83;100.00;100391.00;5133437;28;20145;-86
2022/12/23 02:39:16;;;;;;;14.55;7.40;;;;;;;8.83;100.00;100396.19;5133764;28;20031;-86
2022/12/23 02:42:04;;;;;;;14.77;7.60;;;;;;;8.84;100.00;100403.06;5137021;27;20030;-86
2022/12/23 02:44:55;;;;;;;18.40;9.35;;;;;;;8.84;100.00;100411.69;5138021;27;20039;-86
2022/12/23 02:47:28;;;;;;;17.00;8.63;;;;;;;8.84;100.00;100418.59;5137882;27;20023;-86
2022/12/23 02:49:58;;;;;;;17.00;8.07;;;;;;;8.84;100.00;100427.19;5136758;27;20468;-86
2022/12/23 02:52:30;;;;;;;18.80;9.45;;;;;;;8.83;100.00;100430.69;5137540;27;20054;-86
2022/12/23 02:55:02;;;;;;;16.70;8.95;;;;;;;8.84;100.00;100434.13;5121068;27;20097;-85
2022/12/23 02:57:33;;;;;;;17.33;8.88;;;;;;;8.84;100.00;100431.53;5131893;27;20027;-85
2022/12/23 03:00:00;;;;;;;16.27;8.45;;;;;;;8.85;100.00;100446.19;5135340;27;20069;-84
2022/12/23 03:02:25;;;;;;;16.92;8.57;;;;;;;8.84;100.00;100442.72;5116698;28;20084;-85
2022/12/23 03:04:50;;;;;;;15.47;7.97;;;;;;;8.84;100.00;100437.56;5116252;28;20036;-85
2022/12/23 03:07:22;;;;;;;15.30;7.60;;;;;;;8.83;100.00;100427.22;5116996;28;20031;-85
2022/12/23 03:09:56;;;;;;;11.98;6.43;;;;;;;8.83;100.00;100435.88;5116661;28;20498;-85
2022/12/23 03:12:40;;;;;;;14.60;7.10;;;;;;;8.82;100.00;100436.75;5116290;28;20106;-85
2022/12/23 03:15:21;;;;;;;18.27;8.90;;;;;;;8.82;100.00;100439.34;5118040;27;20114;-86
2022/12/23 03:18:14;;;;;;;16.63;8.63;;;;;;;8.83;100.00;100440.19;5116545;28;20467;-85
2022/12/23 03:21:13;;;;;;;16.73;8.23;;;;;;;8.83;100.00;100437.59;5125581;27;20118;-85
2022/12/23 03:23:51;;;;;;;16.02;7.85;;;;;;;8.81;100.00;100435.88;5137294;27;20035;-86
2022/12/23 03:26:37;;;;;;;16.02;7.68;;;;;;;8.80;100.00;100428.97;5137252;27;20075;-86
2022/12/23 03:29:16;;;;;;;14.45;7.35;;;;;;;8.81;100.00;100441.03;5137292;27;20114;-85
2022/12/23 03:31:44;;;;;;;13.88;6.97;;;;;;;8.80;100.00;100423.81;5136273;27;20026;-86
2022/12/23 03:34:15;;;;;;;14.95;7.18;;;;;;;8.80;100.00;100426.41;5137150;27;20035;-85
2022/12/23 03:36:48;;;;;;;14.60;7.13;;;;;;;8.80;100.00;100423.81;5137492;27;20023;-85
2022/12/23 03:39:18;;;;;;;13.35;6.80;;;;;;;8.80;100.00;100422.97;5136179;27;20111;-86
2022/12/23 03:41:50;;;;;;;15.43;7.00;;;;;;;8.80;100.00;100426.41;5136779;27;20459;-85
2022/12/23 03:44:22;;;;;;;14.68;7.30;;;;;;;8.79;100.00;100436.78;5136502;27;20055;-85
2022/12/23 03:46:54;;;;;;;19.55;9.00;;;;;;;8.78;100.00;100430.72;5136559;27;20110;-85
2022/12/23 03:49:29;;;;;;;18.63;8.82;;;;;;;8.77;100.00;100426.47;5136726;27;20043;-85
2022/12/23 03:52:01;;;;;;;16.10;7.80;;;;;;;8.77;100.00;100423.88;5115545;27;20081;-85
2022/12/23 03:54:34;;;;;;;16.15;7.82;;;;;;;8.78;100.00;100427.31;5115020;28;20069;-85
2022/12/23 03:57:04;;;;;;;16.15;7.50;;;;;;;8.78;100.00;100437.66;5116304;28;20032;-85
2022/12/23 03:59:34;;;;;;;12.73;6.32;;;;;;;8.77;100.00;100435.94;5115493;28;20040;-85
2022/12/23 04:02:12;;;;;;;15.57;7.63;;;;;;;8.79;100.00;100435.03;5116172;28;20027;-85
2022/12/23 04:05:24;;;;;;;16.40;7.70;;;;;;;8.77;100.00;100433.34;5116044;28;20122;-85
2022/12/23 04:08:11;;;;;;;18.73;9.15;;;;;;;8.77;100.00;100442.00;5107656;28;20066;-86
2022/12/23 04:10:37;;;;;;;17.08;8.18;;;;;;;8.77;100.00;100446.28;5116294;28;20023;-85
2022/12/23 04:13:02;;;;;;;14.97;7.63;;;;;;;8.76;100.00;100449.75;5115669;28;20084;-85
2022/12/23 04:15:28;;;;;;;13.20;6.53;;;;;;;8.76;100.00;100458.38;5115156;28;20046;-86
2022/12/23 04:17:56;;;;;;;13.60;6.63;;;;;;;8.77;100.00;100452.34;5116044;28;20024;-86
2022/12/23 04:20:22;;;;;;;13.60;6.70;;;;;;;8.77;100.00;100459.22;5115710;27;20125;-86
2022/12/23 04:22:47;;;;;;;13.70;6.73;;;;;;;8.76;100.00;100457.50;5115250;28;20474;-86
2022/12/23 04:25:15;;;;;;;14.70;6.57;;;;;;;8.77;100.00;100457.50;5115594;28;20028;-86
2022/12/23 04:27:40;;;;;;;13.93;6.70;;;;;;;8.76;100.00;100460.97;5115218;28;20035;-86
2022/12/23 04:30:07;;;;;;;16.57;7.83;;;;;;;8.76;100.00;100463.56;5115528;28;20031;-86
2022/12/23 04:32:32;;;;;;;;;;;;;;;8.75;100.00;100472.19;5116386;28;20509;-86
2022/12/23 04:34:58;;;;;;;15.20;7.37;;;;;;;8.75;100.00;100482.56;5115343;28;19951;-87
2022/12/23 04:37:23;;;;;;;17.37;8.03;;;;;;;8.76;100.00;100481.69;5115169;28;20088;-86
2022/12/23 04:39:48;;;;;;;16.30;7.90;;;;;;;8.75;100.00;100481.69;5115180;28;20460;-87
2022/12/23 04:42:13;;;;;;;16.37;7.87;;;;;;;8.75;100.00;100479.97;5115062;28;20384;-86
2022/12/23 04:44:39;;;;;;;15.53;7.00;;;;;;;8.74;100.00;100480.84;5115250;28;20051;-86
2022/12/23 04:47:04;;;;;;;13.57;6.53;;;;;;;8.74;100.00;100473.06;5114999;28;20081;-86
2022/12/23 04:49:30;;;;;;;12.40;5.87;;;;;;;8.75;100.00;100469.63;5114607;28;20185;-87
2022/12/23 04:51:55;;;;;;;14.77;6.60;;;;;;;8.75;100.00;100463.56;5134757;27;20035;-87
2022/12/23 04:54:20;;;;;;;15.23;7.00;;;;;;;8.75;100.00;100456.69;5135209;27;20030;-86
2022/12/23 04:56:46;;;;;;;13.67;6.77;;;;;;;8.75;100.00;100456.69;5135423;27;20110;-87
2022/12/23 04:59:11;;;;;;;13.03;6.43;;;;;;;8.74;100.00;100451.50;5135404;27;20452;-86
2022/12/23 05:01:37;;;;;;;12.03;5.73;;;;;;;8.75;100.00;100455.81;5135325;27;20023;-86
2022/12/23 05:04:05;;;;;;;11.17;5.50;;;;;;;8.73;100.00;100442.03;5134194;27;20153;-86
2022/12/23 05:06:30;;;;;;;9.90;5.00;;;;;;;8.74;100.00;100443.75;5135633;27;20540;-87
2022/12/23 05:08:55;;;;;;;8.40;4.53;;;;;;;8.73;100.00;100449.78;5135852;27;20068;-86
2022/12/23 05:11:21;;;;;;;8.50;4.47;;;;;;;8.71;100.00;100446.38;5134863;27;20106;-85
2022/12/23 05:13:46;;;;;;;10.17;5.27;;;;;;;8.73;100.00;100449.78;5135136;27;20104;-86
2022/12/23 05:16:11;;;;;;;10.83;5.10;;;;;;;8.73;100.00;100457.56;5134791;27;20039;-86
2022/12/23 05:18:37;;;;;;;8.80;4.50;;;;;;;8.72;100.00;100459.28;5134532;27;20485;-86
2022/12/23 05:21:02;;;;;;;10.40;5.20;;;;;;;8.70;100.00;100466.22;5134764;27;20402;-86
2022/12/23 05:23:27;;;;;;;9.13;4.82;;;;;;;8.70;100.00;100473.97;5135219;27;20487;-86
2022/12/23 05:25:53;;;;;;;14.00;6.03;;;;;;;8.69;100.00;100487.78;5134839;27;20023;-86
2022/12/23 05:28:21;;;;;;;12.63;6.23;;;;;;;8.67;100.00;100484.38;5134935;27;20520;-86
2022/12/23 05:30:46;;;;;;;13.93;6.75;;;;;;;8.68;100.00;100499.00;5119819;27;20088;-87
2022/12/23 05:33:17;;;;;;;18.23;8.90;;;;;;;8.65;100.00;100496.47;5113228;28;20027;-86
2022/12/23 05:35:43;;;;;;;17.40;8.40;;;;;;;8.63;100.00;100500.81;5114351;28;20024;-87
2022/12/23 05:38:08;;;;;;;14.87;6.63;;;;;;;8.63;100.00;100495.66;5113501;28;20061;-87
2022/12/23 05:40:33;;;;;;;13.70;6.20;;;;;;;8.65;100.00;100505.09;5114221;28;20106;-87
2022/12/23 05:42:58;;;;;;;10.77;5.37;;;;;;;8.66;100.00;100508.53;5114433;28;20110;-87
2022/12/23 05:45:24;;;;;;;12.20;5.87;;;;;;;8.66;100.00;100518.91;5113943;28;20019;-87
2022/12/23 05:47:49;;;;;;;10.90;5.73;;;;;;;8.65;100.00;100520.59;5114345;28;20116;-86
2022/12/23 05:50:14;;;;;;;11.60;5.47;;;;;;;8.65;100.00;100517.19;5117627;27;20027;-86
2022/12/23 05:52:40;;;;;;;12.50;6.30;;;;;;;8.65;100.00;100512.84;5134312;27;20019;-87
2022/12/23 05:55:05;;;;;;;15.17;6.80;;;;;;;8.65;100.00;100501.66;5134064;27;20027;-86
2022/12/23 05:57:31;;;;;;;14.83;6.77;;;;;;;8.64;100.00;100503.38;5134653;27;20050;-87
2022/12/23 05:59:57;;;;;;;15.80;7.33;;;;;;;8.64;100.00;100500.78;5133952;27;20082;-87
2022/12/23 06:02:22;;;;;;;15.23;6.63;;;;;;;8.63;100.00;100493.91;5134781;27;20065;-86
2022/12/23 06:04:48;;;;;;;14.07;6.30;;;;;;;8.64;100.00;100487.00;5136876;27;20049;-87
2022/12/23 06:07:14;;;;;;;13.80;6.17;;;;;;;8.63;100.00;100485.28;5141068;27;20015;-87
2022/12/23 06:09:39;;;;;;;14.88;6.38;;;;;;;8.61;100.00;100477.53;5134921;27;20049;-86
2022/12/23 06:12:04;;;;;;;15.63;7.20;;;;;;;8.62;100.00;100474.06;5134656;27;20046;-87
2022/12/23 06:14:30;;;;;;;14.88;7.22;;;;;;;8.62;100.00;100462.88;5133858;27;20019;-87
2022/12/23 06:16:55;;;;;;;14.67;6.70;;;;;;;8.63;100.00;100472.38;5134092;27;20027;-87
2022/12/23 06:19:20;;;;;;;15.47;6.90;;;;;;;8.62;100.00;100470.66;5134288;27;20031;-87
2022/12/23 06:21:45;;;;;;;12.80;6.10;;;;;;;8.64;100.00;100463.72;5115233;27;20490;-87
2022/12/23 06:24:11;;;;;;;12.17;5.70;;;;;;;8.65;100.00;100465.44;5114025;28;20103;-88
2022/12/23 06:26:36;;;;;;;11.20;5.37;;;;;;;8.65;100.00;100465.44;5114010;28;20110;-88
2022/12/23 06:29:02;;;;;;;10.93;4.90;;;;;;;8.64;100.00;100467.16;5113609;28;20106;-88
2022/12/23 06:31:27;;;;;;;10.30;5.13;;;;;;;8.64;100.00;100467.16;5113573;28;20028;-84
2022/12/23 06:33:52;;;;;;;10.63;5.27;;;;;;;8.63;100.00;100464.59;5113146;28;20023;-84
2022/12/23 06:36:18;;;;;;;10.50;5.07;;;;;;;8.64;100.00;100469.75;5111958;28;20024;-83
2022/12/23 06:38:43;;;;;;;7.73;4.10;;;;;;;8.65;100.00;100475.78;5112973;28;20110;-87
2022/12/23 06:41:08;;;;;;;7.13;3.90;;;;;;;8.66;100.00;100480.09;5112631;28;20026;-87
2022/12/23 06:43:34;;;;;;;5.23;3.40;;;;;;;8.68;100.00;100485.22;5113403;28;20039;-86
2022/12/23 06:45:59;;;;;;;4.77;3.10;;;;;;;8.67;100.00;100484.38;5113549;28;20031;-86
2022/12/23 06:48:25;;;;;;;7.73;4.00;;;;;;;8.67;100.00;100486.09;5112833;28;20074;-86
2022/12/23 06:50:50;;;;;;;9.45;5.05;;;;;;;8.67;100.00;100480.94;5114241;28;20031;-86
2022/12/23 06:53:15;;;;;;;7.20;3.90;;;;;;;8.67;100.00;100494.72;5113165;28;20019;-86
2022/12/23 06:55:40;;;;;;;8.87;4.10;;;;;;;8.68;100.00;100505.94;5112965;28;20035;-86
2022/12/23 06:58:06;;;;;;;6.33;3.77;;;;;;;8.67;100.00;100512.81;5112707;28;20023;-87
2022/12/23 07:00:31;;;;;;;7.07;3.63;;;;;;;8.69;100.00;100523.16;5113000;28;20080;-86
2022/12/23 07:02:56;;;;;;;5.33;3.40;;;;;;;8.68;100.00;100522.28;5112995;28;20031;-86
2022/12/23 07:05:22;;;;;;;4.50;2.90;;;;;;;8.68;100.00;100539.56;5113116;28;20062;-86
2022/12/23 07:07:47;;;;;;;5.70;3.47;;;;;;;8.68;100.00;100543.00;5113421;28;20437;-86
2022/12/23 07:10:13;;;;;;;5.93;3.40;;;;;;;8.68;100.00;100555.94;5112601;28;20035;-86
2022/12/23 07:12:38;;;;;;;6.70;3.93;;;;;;;8.68;100.00;100558.50;5112782;28;20038;-86
2022/12/23 07:15:04;;;;;;;6.73;3.83;;;;;;;8.69;100.00;100544.72;5111961;28;20357;-86
2022/12/23 07:17:30;;;;;;;10.68;4.70;;;;;;;8.69;100.00;100536.94;5114169;28;20035;-86
2022/12/23 07:19:55;;;;;;;8.30;4.10;;;;;;;8.68;100.00;100530.06;5112719;28;20110;-85
2022/12/23 07:22:21;;;;;;;7.22;3.95;;;;;;;8.68;100.00;100519.72;5110954;28;20027;-87
2022/12/23 07:24:46;;;;;;;7.33;3.87;;;;;;;8.67;100.00;100518.00;5111408;28;20047;-87
2022/12/23 07:27:11;;;;;;;6.35;3.50;;;;;;;8.68;100.00;100522.28;5113011;28;20051;-85
2022/12/23 07:29:37;;;;;;;7.63;4.10;;;;;;;8.68;100.00;100524.88;5115954;28;20026;-87
2022/12/23 07:32:02;;;;;;;8.10;3.90;;;;;;;8.69;100.00;100529.19;5115879;28;20395;-88
2022/12/23 07:34:33;;;;;;;6.80;3.47;;;;;;;8.69;100.00;100526.59;5114912;28;20110;-86
2022/12/23 07:36:59;;;;;;;8.35;4.13;;;;;;;8.70;100.00;100519.72;5114235;28;20019;-87
2022/12/23 07:39:33;;;;;;;6.70;3.50;;;;;;;8.67;100.00;100515.41;5115290;28;20035;-86
2022/12/23 07:42:07;;;;;;;8.38;4.00;;;;;;;8.66;100.00;100508.53;5114587;28;20015;-86
2022/12/23 07:44:33;;;;;;;7.97;3.90;;;;;;;8.67;100.00;100512.81;5116068;28;20376;-85
2022/12/23 07:46:58;;;;;;;7.63;3.90;;;;;;;8.68;100.00;100511.94;5117973;28;20027;-86
2022/12/23 07:49:31;;;;;;;8.43;4.07;;;;;;;8.67;100.00;100514.56;5115994;28;20026;-86
2022/12/23 07:52:05;;;;;;;9.85;4.07;;;;;;;8.67;100.00;100517.16;5116675;28;20370;-86
2022/12/23 07:54:30;;;;;;;8.73;4.10;;;;;;;8.69;100.00;100518.84;5117454;28;20106;-86
2022/12/23 07:56:57;;;;;;;9.80;4.40;;;;;;;8.69;100.00;100525.75;5117676;28;20034;-86
2022/12/23 07:59:24;;;;;;;12.47;5.10;;;;;;;8.69;100.00;100507.66;5116886;28;20039;-87
2022/12/23 08:01:49;;;;;;;9.90;4.63;;;;;;;8.70;100.00;100515.38;5117789;28;20030;-87
2022/12/23 08:04:15;;;;;;;9.50;4.53;;;;;;;8.71;100.00;100516.25;5116855;28;20024;-87
2022/12/23 08:06:40;;;;;;;10.95;4.85;;;;;;;8.70;100.00;100510.19;5115342;28;20116;-87
2022/12/23 08:09:08;;;;;;;10.47;4.47;;;;;;;8.68;100.00;100505.94;5116540;28;20055;-86
2022/12/23 08:11:33;;;;;;;11.80;4.97;;;;;;;8.69;100.00;100508.47;5116406;28;20080;-86
2022/12/23 08:13:58;;;;;;;11.50;4.87;;;;;;;8.68;100.00;100511.09;5115631;28;20376;-87
2022/12/23 08:16:24;;;;;;;13.13;5.47;;;;;;;8.68;100.00;100508.53;5117356;28;20043;-87
2022/12/23 08:18:49;;;;;;;10.93;4.70;;;;;;;8.69;100.00;100503.31;5121255;27;20023;-87
2022/12/23 08:21:18;;;;;;;11.10;4.63;;;;;;;8.70;100.00;100493.84;5117725;27;20035;-87
2022/12/23 08:23:45;;;;;;;10.50;4.78;;;;;;;8.70;100.00;100504.19;5138952;27;20019;-87
2022/12/23 08:26:20;;;;;;;10.95;4.80;;;;;;;8.70;100.00;100499.84;5137241;27;20110;-86
2022/12/23 08:28:47;;;;;;;10.52;4.57;;;;;;;8.70;100.00;100510.19;5136543;27;20034;-84
2022/12/23 08:31:17;;;;;;;;;;;;;;;8.71;100.00;100505.91;5136260;27;20503;-84
2022/12/23 08:33:44;;;;;;;;;;;;;;;8.70;100.00;100493.84;5139502;27;20006;-88
2022/12/23 08:36:12;;;;;;;;;;;;;;;8.69;100.00;100500.72;5138319;27;20320;-89
2022/12/23 08:38:37;;;;;;;;;;;;;;;8.68;100.00;100509.34;5136721;27;20355;-85
2022/12/23 08:41:06;;;;;;;;;;;;;;;8.67;100.00;100504.22;5116570;27;19927;-86
2022/12/23 08:43:32;;;;;;;;;;;;;;;8.65;100.00;100497.31;5115344;28;20010;-86
2022/12/23 08:45:57;;;;;;;;;;;;;;;8.65;100.00;100497.31;5115370;28;20355;-86
2022/12/23 08:48:22;;;;;;;;;;;;;;;8.65;100.00;100484.38;5117394;27;19926;-86
2022/12/23 08:50:47;;;;;;;;;;;;;;;8.66;100.00;100485.25;5136424;27;19912;-86
2022/12/23 08:53:12;;;;;;;;;;;;;;;8.65;100.00;100475.78;5133992;27;20359;-86
2022/12/23 08:55:39;;;;;;;;;;;;;;;8.65;100.00;100476.63;5135874;27;19911;-87
2022/12/23 08:58:04;;;;;;;;;;;;;;;8.66;100.00;100474.91;5136314;27;19964;-87
2022/12/23 09:00:29;;;;;;;;;;;;;;;8.65;100.00;100470.63;5136420;27;19911;-87
2022/12/23 09:02:54;;;;;;;;;;;;;;;8.64;100.00;100467.16;5114746;27;19916;-87
2022/12/23 09:05:19;;;;;;;;;;;;;;;8.65;100.00;100474.03;5114290;28;19912;-87
2022/12/23 09:07:45;;;;;;;;;;;;;;;8.64;100.00;100474.06;5113336;28;19916;-87
2022/12/23 09:10:10;;;;;;;;;;;;;;;8.63;100.00;100462.00;5114458;28;19912;-87
2022/12/23 09:12:35;;;;;;;;;;;;;;;8.64;100.00;100458.56;5114003;28;19916;-87
2022/12/23 09:15:00;;;;;;;;;;;;;;;8.64;100.00;100454.22;5115263;28;19911;-87
2022/12/23 09:17:25;;;;;;;;;;;;;;;8.64;100.00;100453.38;5114283;28;19915;-87
2022/12/23 09:19:51;;;;;;;;;;;;;;;8.68;100.00;100449.84;5130384;27;19915;-87
2022/12/23 09:22:16;;;;;;;;;;;;;;;8.64;100.00;100437.84;5135882;27;20370;-89
2022/12/23 09:24:41;;;;;;;;;;;;;;;8.65;100.00;100435.25;5135622;27;19911;-88
2022/12/23 09:27:06;;;;;;;;;;;;;;;8.64;100.00;100425.75;5135797;27;19911;-88
2022/12/23 09:29:31;;;;;;;;;;;;;;;8.65;100.00;100424.06;5135855;27;19911;-88
2022/12/23 09:31:56;;;;;;;;;;;;;;;8.64;100.00;100428.34;5133706;27;19964;-89
2022/12/23 09:34:22;;;;;;;;;;;;;;;8.63;100.00;100423.22;5114864;28;19955;-88
2022/12/23 09:36:47;;;;;;;;;;;;;;;8.61;100.00;100423.22;5115339;28;19961;-88
2022/12/23 09:39:12;;;;;;;;;;;;;;;8.62;100.00;100417.16;5114208;28;19994;-88
2022/12/23 09:41:47;;;;;;;;;;;;;;;8.60;100.00;100418.94;5115215;28;19912;-89
2022/12/23 09:44:32;;;;;;;;;;;;;;;8.61;100.00;100415.44;5113465;27;19915;-88
2022/12/23 09:47:00;;;;;;;;;;;;;;;8.62;100.00;100411.16;5112352;28;19950;-88
2022/12/23 09:49:26;;;;;;;;;;;;;;;8.61;100.00;100412.03;5112958;28;19912;-88
2022/12/23 09:51:54;;;;;;;;;;;;;;;8.59;100.00;100395.66;5114355;28;19918;-89
2022/12/23 09:54:28;;;;;;;;;;;;;;;8.59;100.00;100396.53;5120527;27;19969;-87
2022/12/23 09:56:53;;;;;;;;;;;;;;;8.61;100.00;100392.16;5135540;27;19920;-88
2022/12/23 09:59:37;;;;;;;;;;;;;;;8.60;100.00;100392.19;5134620;27;19915;-90
2022/12/23 10:02:02;;;;;;;;;;;;;;;8.62;100.00;100401.63;5123379;27;19916;-90
2022/12/23 10:04:35;;;;;;;;;;;;;;;8.63;100.00;100408.53;5121735;27;19911;-90
2022/12/23 10:07:03;;;;;;;;;;;;;;;8.64;100.00;100402.47;5134780;27;19911;-90
2022/12/23 10:09:30;;;;;;;;;;;;;;;8.66;100.00;100410.25;5135393;27;20006;-89
2022/12/23 10:11:56;;;;;;;;;;;;;;;8.67;100.00;100411.91;5135776;27;19943;-90
2022/12/23 10:14:28;;;;;;;;;;;;;;;8.67;100.00;100390.38;5134594;27;20328;-93
2022/12/23 10:16:56;;;;;;;;;;;;;;;8.67;100.00;100380.03;5134842;27;20328;-88
2022/12/23 10:19:32;;;;;;;;;;;;;;;8.67;100.00;100372.28;5133876;27;19919;-87
2022/12/23 10:22:02;;;;;;;;;;;;;;;8.65;100.00;100374.91;5133821;27;19965;-86
2022/12/23 10:24:32;;;;;;;;;;;;;;;8.66;100.00;100368.84;5134673;27;19908;-88
2022/12/23 10:27:03;;;;;;;;;;;;;;;8.66;100.00;100368.84;5132442;27;19941;-87
2022/12/23 10:29:32;;;;;;;;;;;;;;;8.67;100.00;100354.16;5134827;27;19908;-87
2022/12/23 10:32:15;;;;;;;;;;;;;;;8.67;100.00;100342.06;5132037;28;19915;-89
2022/12/23 10:34:40;;;;;;;;;;;;;;;8.69;100.00;100348.09;5134517;28;20435;-89
2022/12/23 10:37:26;;;;;;;;;;;;;;;8.70;100.00;100344.63;5134809;28;19957;-86
2022/12/23 10:40:10;;;;;;;;;;;;;;;8.71;100.00;100329.97;5133496;28;19911;-87
2022/12/23 10:42:42;;;;;;;;;;;;;;;8.72;100.00;100335.09;5133624;28;19919;-87
2022/12/23 10:45:26;;;;;;;;;;;;;;;8.75;100.00;100327.31;5134173;28;19918;-87
2022/12/23 10:48:10;;;;;;;;;;;;;;;8.80;100.00;100325.47;5132296;28;19954;-87
2022/12/23 10:50:54;;;;;;;;;;;;;;;8.81;100.00;100321.19;5134379;28;20317;-87
2022/12/23 10:53:39;;;;;;;;;;;;;;;8.84;100.00;100313.34;5134035;28;19912;-87
2022/12/23 10:56:06;;;;;;;;;;;;;;;8.87;100.00;100304.69;5132717;28;20377;-87
2022/12/23 10:58:32;;;;;;;;;;;;;;;8.91;100.00;100304.63;5133418;28;19918;-86
2022/12/23 11:00:58;;;;;;;;;;;;;;;8.93;100.00;100294.22;5133830;27;19911;-86
2022/12/23 11:03:37;;;;;;;;;;;;;;;8.92;100.00;100287.34;5135116;27;19922;-86
2022/12/23 11:06:05;;;;;;;;;;;;;;;8.86;100.00;100272.78;5137341;27;20013;-87
2022/12/23 11:08:30;;;;;;;;;;;;;;;8.84;100.00;100263.34;5137675;27;19911;-86
2022/12/23 11:10:57;;;;;;;;;;;;;;;8.84;100.00;100268.50;5138503;27;19915;-87
2022/12/23 11:13:29;;;;;;;;;;;;;;;8.83;100.00;100257.31;5137830;27;19958;-86
2022/12/23 11:16:09;;;;;;;;;;;;;;;8.83;100.00;100257.31;5137305;27;19912;-86
2022/12/23 11:18:34;;;;;;;;;;;;;;;8.84;100.00;100260.75;5137987;27;19929;-86
2022/12/23 11:21:01;;;;;;;;;;;;;;;8.82;100.00;100258.19;5132305;27;19941;-86
2022/12/23 11:23:28;;;;;;;;;;;;;;;8.83;100.00;100259.03;5116631;28;19908;-86
2022/12/23 11:26:01;;;;;;;;;;;;;;;8.81;100.00;100257.31;5122798;27;19922;-85
2022/12/23 11:28:26;;;;;;;;;;;;;;;8.79;100.00;100256.50;5138007;27;19918;-87
2022/12/23 11:30:52;;;;;;;;;;;;;;;8.79;100.00;100246.16;5137652;27;19911;-86
2022/12/23 11:33:26;;;;;;;;;;;;;;;8.79;100.00;100247.91;5121854;27;20260;-85
2022/12/23 11:35:59;;;;;;;;;;;;;;;8.77;100.00;100236.72;5116398;28;19908;-86
2022/12/23 11:38:24;;;;;;;;;;;;;;;8.75;100.00;100229.00;5114306;28;19911;-86
2022/12/23 11:40:50;;;;;;;;;;;;;;;8.74;100.00;100235.03;5115675;28;19912;-86
2022/12/23 11:43:15;;;;;;;;;;;;;;;8.74;100.00;100221.22;5115127;28;20000;-86
2022/12/23 11:45:40;;;;;;;;;;;;;;;8.72;100.00;100218.69;5114590;28;19939;-86
2022/12/23 11:48:24;;;;;;;;;;;;;;;8.69;100.00;100213.56;5114531;28;19918;-85
2022/12/23 11:50:57;;;;;;;;;;;;;;;8.68;100.00;100205.84;5122640;27;19955;-85
2022/12/23 11:53:23;;;;;;;;;;;;;;;8.66;100.00;100198.13;5127012;27;20391;-85
2022/12/23 11:56:03;;;;;;;;;;;;;;;8.65;100.00;100184.31;5116395;28;19912;-86
2022/12/23 11:58:30;;;;;;;;;;;;;;;8.65;100.00;100186.06;5116008;28;19911;-85
2022/12/23 12:00:58;;;;;;;;;;;;;;;8.64;100.00;100182.59;5116686;28;19912;-86
2022/12/23 12:03:32;;;;;;;;;;;;;;;8.63;100.00;100177.47;5116512;28;20002;-85
2022/12/23 12:05:58;;;;;;;;;;;;;;;8.62;100.00;100165.41;5115665;28;19994;-85
2022/12/23 12:08:27;;;;;;;;;;;;;;;8.58;100.00;100158.56;5124995;27;19945;-86
2022/12/23 12:10:58;;;;;;;;;;;;;;;8.57;100.00;100139.63;5118812;27;20261;-85
2022/12/23 12:13:31;;;;;;;;;;;;;;;8.56;100.00;100118.94;5114324;28;19916;-85
2022/12/23 12:16:15;;;;;;;;;;;;;;;8.54;100.00;100111.22;5115440;28;19919;-84
2022/12/23 12:18:42;;;;;;;;;;;;;;;8.52;100.00;100101.81;5115166;28;20010;-85
2022/12/23 12:21:15;;;;;;;;;;;;;;;8.53;100.00;100098.34;5115277;28;19915;-84